sensor_id;sensor_type;location;lat;lon;timestamp;P1;durP1;ratioP1;P2;durP2;ratioP2
9970;SDS011;5026;51.494;11.974;2023-02-24T00:01:31;32.10;;;11.63;;
9970;SDS011;5026;51.494;11.974;2023-02-24T00:04:02;35.93;;;11.70;;
9970;SDS011;5026;51.494;11.974;2023-02-24T00:06:33;38.73;;;12.13;;
9970;SDS011;5026;51.494;11.974;2023-02-24T00:09:01;31.30;;;12.20;;
9970;SDS011;5026;51.494;11.974;2023-02-24T00:11:32;29.33;;;12.73;;
9970;SDS011;5026;51.494;11.974;2023-02-24T00:14:00;34.57;;;12.37;;
9970;SDS011;5026;51.494;11.974;2023-02-24T00:16:29;29.27;;;12.13;;
9970;SDS011;5026;51.494;11.974;2023-02-24T00:18:57;28.13;;;12.63;;
9970;SDS011;5026;51.494;11.974;2023-02-24T00:21:25;33.60;;;13.27;;
9970;SDS011;5026;51.494;11.974;2023-02-24T00:23:54;29.97;;;12.50;;
9970;SDS011;5026;51.494;11.974;2023-02-24T00:26:23;32.33;;;12.57;;
9970;SDS011;5026;51.494;11.974;2023-02-24T00:28:50;33.83;;;12.87;;
9970;SDS011;5026;51.494;11.974;2023-02-24T00:31:18;34.53;;;12.33;;
9970;SDS011;5026;51.494;11.974;2023-02-24T00:33:48;36.57;;;13.17;;
9970;SDS011;5026;51.494;11.974;2023-02-24T00:36:16;36.30;;;13.47;;
9970;SDS011;5026;51.494;11.974;2023-02-24T00:38:49;35.50;;;13.83;;
9970;SDS011;5026;51.494;11.974;2023-02-24T00:41:19;44.37;;;14.80;;
9970;SDS011;5026;51.494;11.974;2023-02-24T00:43:49;38.53;;;14.67;;
9970;SDS011;5026;51.494;11.974;2023-02-24T00:46:17;40.03;;;13.77;;
9970;SDS011;5026;51.494;11.974;2023-02-24T00:48:46;38.43;;;13.87;;
9970;SDS011;5026;51.494;11.974;2023-02-24T00:51:19;37.83;;;14.67;;
9970;SDS011;5026;51.494;11.974;2023-02-24T00:53:49;37.43;;;13.97;;
9970;SDS011;5026;51.494;11.974;2023-02-24T00:56:20;38.30;;;13.27;;
9970;SDS011;5026;51.494;11.974;2023-02-24T00:58:48;41.13;;;14.10;;
9970;SDS011;5026;51.494;11.974;2023-02-24T01:01:16;40.37;;;14.60;;
9970;SDS011;5026;51.494;11.974;2023-02-24T01:03:44;36.80;;;13.47;;
9970;SDS011;5026;51.494;11.974;2023-02-24T01:06:14;36.33;;;13.83;;
9970;SDS011;5026;51.494;11.974;2023-02-24T01:08:44;33.77;;;13.67;;
9970;SDS011;5026;51.494;11.974;2023-02-24T01:11:15;41.07;;;15.17;;
9970;SDS011;5026;51.494;11.974;2023-02-24T01:14:02;42.13;;;15.53;;
9970;SDS011;5026;51.494;11.974;2023-02-24T01:16:29;36.63;;;14.13;;
9970;SDS011;5026;51.494;11.974;2023-02-24T01:18:56;29.87;;;13.27;;
9970;SDS011;5026;51.494;11.974;2023-02-24T01:21:23;27.73;;;11.13;;
9970;SDS011;5026;51.494;11.974;2023-02-24T01:23:50;25.60;;;9.70;;
9970;SDS011;5026;51.494;11.974;2023-02-24T01:26:19;22.37;;;7.87;;
9970;SDS011;5026;51.494;11.974;2023-02-24T01:28:46;25.13;;;6.53;;
9970;SDS011;5026;51.494;11.974;2023-02-24T01:31:14;18.33;;;5.20;;
9970;SDS011;5026;51.494;11.974;2023-02-24T01:33:42;12.50;;;4.30;;
9970;SDS011;5026;51.494;11.974;2023-02-24T01:36:11;15.07;;;4.40;;
9970;SDS011;5026;51.494;11.974;2023-02-24T01:38:39;10.47;;;4.50;;
9970;SDS011;5026;51.494;11.974;2023-02-24T01:41:07;12.53;;;4.60;;
9970;SDS011;5026;51.494;11.974;2023-02-24T01:46:30;13.37;;;4.37;;
9970;SDS011;5026;51.494;11.974;2023-02-24T01:48:59;14.00;;;4.10;;
9970;SDS011;5026;51.494;11.974;2023-02-24T01:51:33;8.90;;;3.77;;
9970;SDS011;5026;51.494;11.974;2023-02-24T01:54:04;13.53;;;4.10;;
9970;SDS011;5026;51.494;11.974;2023-02-24T01:56:33;13.10;;;4.37;;
9970;SDS011;5026;51.494;11.974;2023-02-24T01:59:00;20.53;;;4.43;;
9970;SDS011;5026;51.494;11.974;2023-02-24T02:01:29;15.37;;;4.47;;
9970;SDS011;5026;51.494;11.974;2023-02-24T02:04:04;16.80;;;4.87;;
9970;SDS011;5026;51.494;11.974;2023-02-24T02:06:40;12.97;;;4.57;;
9970;SDS011;5026;51.494;11.974;2023-02-24T02:09:07;13.33;;;5.00;;
9970;SDS011;5026;51.494;11.974;2023-02-24T02:11:35;15.73;;;4.83;;
9970;SDS011;5026;51.494;11.974;2023-02-24T02:14:02;16.23;;;4.63;;
9970;SDS011;5026;51.494;11.974;2023-02-24T02:16:42;16.10;;;5.27;;
9970;SDS011;5026;51.494;11.974;2023-02-24T02:19:27;14.40;;;5.40;;
9970;SDS011;5026;51.494;11.974;2023-02-24T02:22:29;14.70;;;4.97;;
9970;SDS011;5026;51.494;11.974;2023-02-24T02:25:18;19.47;;;6.47;;
9970;SDS011;5026;51.494;11.974;2023-02-24T02:28:16;17.03;;;4.80;;
9970;SDS011;5026;51.494;11.974;2023-02-24T02:34:10;18.33;;;4.17;;
9970;SDS011;5026;51.494;11.974;2023-02-24T02:36:54;20.40;;;4.83;;
9970;SDS011;5026;51.494;11.974;2023-02-24T02:39:29;21.07;;;4.93;;
9970;SDS011;5026;51.494;11.974;2023-02-24T02:42:02;17.57;;;3.87;;
9970;SDS011;5026;51.494;11.974;2023-02-24T02:44:41;19.27;;;3.73;;
9970;SDS011;5026;51.494;11.974;2023-02-24T02:47:21;16.63;;;4.30;;
9970;SDS011;5026;51.494;11.974;2023-02-24T02:49:54;22.77;;;4.20;;
9970;SDS011;5026;51.494;11.974;2023-02-24T02:52:25;22.70;;;4.33;;
9970;SDS011;5026;51.494;11.974;2023-02-24T02:54:58;14.63;;;4.30;;
9970;SDS011;5026;51.494;11.974;2023-02-24T02:57:28;24.47;;;4.27;;
9970;SDS011;5026;51.494;11.974;2023-02-24T02:59:59;22.07;;;4.23;;
9970;SDS011;5026;51.494;11.974;2023-02-24T03:02:35;16.90;;;3.77;;
9970;SDS011;5026;51.494;11.974;2023-02-24T03:05:08;13.83;;;3.73;;
9970;SDS011;5026;51.494;11.974;2023-02-24T03:07:38;11.47;;;3.40;;
9970;SDS011;5026;51.494;11.974;2023-02-24T03:10:10;15.33;;;3.40;;
9970;SDS011;5026;51.494;11.974;2023-02-24T03:12:45;18.43;;;4.10;;
9970;SDS011;5026;51.494;11.974;2023-02-24T03:15:15;9.03;;;3.53;;
9970;SDS011;5026;51.494;11.974;2023-02-24T03:17:45;12.23;;;3.90;;
9970;SDS011;5026;51.494;11.974;2023-02-24T03:20:17;16.43;;;3.67;;
9970;SDS011;5026;51.494;11.974;2023-02-24T03:22:48;17.43;;;3.10;;
9970;SDS011;5026;51.494;11.974;2023-02-24T03:25:20;17.43;;;3.23;;
9970;SDS011;5026;51.494;11.974;2023-02-24T03:27:56;16.93;;;3.30;;
9970;SDS011;5026;51.494;11.974;2023-02-24T03:30:31;19.20;;;3.53;;
9970;SDS011;5026;51.494;11.974;2023-02-24T03:33:06;14.40;;;2.90;;
9970;SDS011;5026;51.494;11.974;2023-02-24T03:35:42;16.10;;;3.27;;
9970;SDS011;5026;51.494;11.974;2023-02-24T03:38:09;17.63;;;3.33;;
9970;SDS011;5026;51.494;11.974;2023-02-24T03:40:38;14.03;;;2.70;;
9970;SDS011;5026;51.494;11.974;2023-02-24T03:43:07;20.97;;;3.20;;
9970;SDS011;5026;51.494;11.974;2023-02-24T03:45:41;23.00;;;3.60;;
9970;SDS011;5026;51.494;11.974;2023-02-24T03:48:08;13.70;;;2.60;;
9970;SDS011;5026;51.494;11.974;2023-02-24T03:50:37;15.03;;;3.10;;
9970;SDS011;5026;51.494;11.974;2023-02-24T03:53:10;13.93;;;3.07;;
9970;SDS011;5026;51.494;11.974;2023-02-24T03:55:50;17.90;;;3.80;;
9970;SDS011;5026;51.494;11.974;2023-02-24T03:58:27;18.03;;;3.00;;
9970;SDS011;5026;51.494;11.974;2023-02-24T04:01:03;16.13;;;2.87;;
9970;SDS011;5026;51.494;11.974;2023-02-24T04:03:37;11.83;;;2.43;;
9970;SDS011;5026;51.494;11.974;2023-02-24T04:06:12;12.63;;;2.70;;
9970;SDS011;5026;51.494;11.974;2023-02-24T04:08:47;13.10;;;3.13;;
9970;SDS011;5026;51.494;11.974;2023-02-24T04:11:21;13.10;;;2.70;;
9970;SDS011;5026;51.494;11.974;2023-02-24T04:13:53;16.33;;;2.87;;
9970;SDS011;5026;51.494;11.974;2023-02-24T04:16:26;15.07;;;2.73;;
9970;SDS011;5026;51.494;11.974;2023-02-24T04:19:01;20.43;;;2.70;;
9970;SDS011;5026;51.494;11.974;2023-02-24T04:21:32;14.27;;;2.93;;
9970;SDS011;5026;51.494;11.974;2023-02-24T04:24:03;15.23;;;2.77;;
9970;SDS011;5026;51.494;11.974;2023-02-24T04:26:35;15.30;;;2.60;;
9970;SDS011;5026;51.494;11.974;2023-02-24T04:29:04;16.73;;;2.90;;
9970;SDS011;5026;51.494;11.974;2023-02-24T04:31:32;12.83;;;2.70;;
9970;SDS011;5026;51.494;11.974;2023-02-24T04:34:02;13.27;;;2.67;;
9970;SDS011;5026;51.494;11.974;2023-02-24T04:36:33;17.67;;;3.43;;
9970;SDS011;5026;51.494;11.974;2023-02-24T04:39:03;8.73;;;2.60;;
9970;SDS011;5026;51.494;11.974;2023-02-24T04:41:31;19.23;;;3.33;;
9970;SDS011;5026;51.494;11.974;2023-02-24T04:43:59;11.23;;;2.50;;
9970;SDS011;5026;51.494;11.974;2023-02-24T04:46:26;21.37;;;2.90;;
9970;SDS011;5026;51.494;11.974;2023-02-24T04:48:56;14.63;;;2.30;;
9970;SDS011;5026;51.494;11.974;2023-02-24T04:51:23;14.97;;;2.80;;
9970;SDS011;5026;51.494;11.974;2023-02-24T04:53:50;14.10;;;2.60;;
9970;SDS011;5026;51.494;11.974;2023-02-24T04:56:20;15.20;;;2.93;;
9970;SDS011;5026;51.494;11.974;2023-02-24T04:58:47;18.20;;;3.10;;
9970;SDS011;5026;51.494;11.974;2023-02-24T05:01:14;15.47;;;3.47;;
9970;SDS011;5026;51.494;11.974;2023-02-24T05:03:41;12.43;;;2.93;;
9970;SDS011;5026;51.494;11.974;2023-02-24T05:06:12;17.43;;;2.77;;
9970;SDS011;5026;51.494;11.974;2023-02-24T05:08:40;11.70;;;3.20;;
9970;SDS011;5026;51.494;11.974;2023-02-24T05:11:10;11.67;;;2.73;;
9970;SDS011;5026;51.494;11.974;2023-02-24T05:13:41;15.23;;;3.37;;
9970;SDS011;5026;51.494;11.974;2023-02-24T05:16:10;13.97;;;3.13;;
9970;SDS011;5026;51.494;11.974;2023-02-24T05:18:39;13.37;;;3.43;;
9970;SDS011;5026;51.494;11.974;2023-02-24T05:21:07;10.33;;;3.07;;
9970;SDS011;5026;51.494;11.974;2023-02-24T05:23:53;6.63;;;3.13;;
9970;SDS011;5026;51.494;11.974;2023-02-24T05:26:22;14.53;;;3.53;;
9970;SDS011;5026;51.494;11.974;2023-02-24T05:28:51;11.67;;;3.30;;
9970;SDS011;5026;51.494;11.974;2023-02-24T05:31:20;17.40;;;3.47;;
9970;SDS011;5026;51.494;11.974;2023-02-24T05:33:51;10.70;;;3.50;;
9970;SDS011;5026;51.494;11.974;2023-02-24T05:36:20;17.63;;;4.50;;
9970;SDS011;5026;51.494;11.974;2023-02-24T05:38:47;14.63;;;4.47;;
9970;SDS011;5026;51.494;11.974;2023-02-24T05:41:19;9.47;;;3.40;;
9970;SDS011;5026;51.494;11.974;2023-02-24T05:43:48;13.40;;;3.90;;
9970;SDS011;5026;51.494;11.974;2023-02-24T05:46:19;18.73;;;4.13;;
9970;SDS011;5026;51.494;11.974;2023-02-24T05:48:52;11.97;;;3.83;;
9970;SDS011;5026;51.494;11.974;2023-02-24T05:51:21;13.50;;;3.33;;
9970;SDS011;5026;51.494;11.974;2023-02-24T05:53:49;13.33;;;3.93;;
9970;SDS011;5026;51.494;11.974;2023-02-24T05:56:19;18.20;;;3.93;;
9970;SDS011;5026;51.494;11.974;2023-02-24T05:58:47;15.50;;;4.17;;
9970;SDS011;5026;51.494;11.974;2023-02-24T06:01:27;16.23;;;4.00;;
9970;SDS011;5026;51.494;11.974;2023-02-24T06:03:55;14.67;;;3.73;;
9970;SDS011;5026;51.494;11.974;2023-02-24T06:06:29;21.20;;;3.97;;
9970;SDS011;5026;51.494;11.974;2023-02-24T06:09:00;13.60;;;3.97;;
9970;SDS011;5026;51.494;11.974;2023-02-24T06:11:32;12.20;;;3.47;;
9970;SDS011;5026;51.494;11.974;2023-02-24T06:14:00;10.13;;;3.60;;
9970;SDS011;5026;51.494;11.974;2023-02-24T06:16:28;13.53;;;3.40;;
9970;SDS011;5026;51.494;11.974;2023-02-24T06:18:55;15.43;;;3.20;;
9970;SDS011;5026;51.494;11.974;2023-02-24T06:21:22;11.70;;;3.30;;
9970;SDS011;5026;51.494;11.974;2023-02-24T06:23:50;15.40;;;4.83;;
9970;SDS011;5026;51.494;11.974;2023-02-24T06:26:17;15.97;;;3.57;;
9970;SDS011;5026;51.494;11.974;2023-02-24T06:28:50;13.30;;;3.87;;
9970;SDS011;5026;51.494;11.974;2023-02-24T06:31:33;9.17;;;3.50;;
9970;SDS011;5026;51.494;11.974;2023-02-24T06:34:00;13.60;;;3.73;;
9970;SDS011;5026;51.494;11.974;2023-02-24T06:36:27;15.17;;;4.13;;
9970;SDS011;5026;51.494;11.974;2023-02-24T06:38:53;10.10;;;3.40;;
9970;SDS011;5026;51.494;11.974;2023-02-24T06:41:20;11.67;;;3.70;;
9970;SDS011;5026;51.494;11.974;2023-02-24T06:43:47;14.30;;;4.37;;
9970;SDS011;5026;51.494;11.974;2023-02-24T06:46:15;12.00;;;3.27;;
9970;SDS011;5026;51.494;11.974;2023-02-24T06:48:43;10.37;;;3.03;;
9970;SDS011;5026;51.494;11.974;2023-02-24T06:51:12;17.67;;;3.60;;
9970;SDS011;5026;51.494;11.974;2023-02-24T06:53:40;15.20;;;3.60;;
9970;SDS011;5026;51.494;11.974;2023-02-24T06:56:09;19.17;;;3.87;;
9970;SDS011;5026;51.494;11.974;2023-02-24T06:58:40;18.80;;;4.07;;
9970;SDS011;5026;51.494;11.974;2023-02-24T07:01:11;20.47;;;3.80;;
9970;SDS011;5026;51.494;11.974;2023-02-24T07:03:39;12.20;;;3.60;;
9970;SDS011;5026;51.494;11.974;2023-02-24T07:06:13;12.73;;;3.30;;
9970;SDS011;5026;51.494;11.974;2023-02-24T07:08:48;13.10;;;3.83;;
9970;SDS011;5026;51.494;11.974;2023-02-24T07:11:16;13.10;;;4.33;;
9970;SDS011;5026;51.494;11.974;2023-02-24T07:13:43;20.47;;;3.53;;
9970;SDS011;5026;51.494;11.974;2023-02-24T07:16:12;11.23;;;3.20;;
9970;SDS011;5026;51.494;11.974;2023-02-24T07:18:40;16.60;;;3.63;;
9970;SDS011;5026;51.494;11.974;2023-02-24T07:21:08;17.17;;;3.87;;
9970;SDS011;5026;51.494;11.974;2023-02-24T07:23:38;14.20;;;3.87;;
9970;SDS011;5026;51.494;11.974;2023-02-24T07:26:06;18.30;;;4.00;;
9970;SDS011;5026;51.494;11.974;2023-02-24T07:28:36;15.37;;;3.97;;
9970;SDS011;5026;51.494;11.974;2023-02-24T07:31:04;16.40;;;3.57;;
9970;SDS011;5026;51.494;11.974;2023-02-24T07:33:33;11.70;;;4.10;;
9970;SDS011;5026;51.494;11.974;2023-02-24T07:36:02;15.27;;;3.70;;
9970;SDS011;5026;51.494;11.974;2023-02-24T07:38:33;17.43;;;4.17;;
9970;SDS011;5026;51.494;11.974;2023-02-24T07:41:05;10.43;;;3.13;;
9970;SDS011;5026;51.494;11.974;2023-02-24T07:43:35;11.57;;;3.67;;
9970;SDS011;5026;51.494;11.974;2023-02-24T07:46:05;15.30;;;3.83;;
9970;SDS011;5026;51.494;11.974;2023-02-24T07:48:33;16.37;;;3.83;;
9970;SDS011;5026;51.494;11.974;2023-02-24T07:51:00;16.87;;;4.00;;
9970;SDS011;5026;51.494;11.974;2023-02-24T07:53:27;17.00;;;4.17;;
9970;SDS011;5026;51.494;11.974;2023-02-24T07:55:55;13.73;;;4.20;;
9970;SDS011;5026;51.494;11.974;2023-02-24T07:58:22;19.10;;;3.90;;
9970;SDS011;5026;51.494;11.974;2023-02-24T08:00:49;15.27;;;3.60;;
9970;SDS011;5026;51.494;11.974;2023-02-24T08:03:24;15.90;;;3.47;;
9970;SDS011;5026;51.494;11.974;2023-02-24T08:05:55;15.43;;;3.50;;
9970;SDS011;5026;51.494;11.974;2023-02-24T08:08:24;11.03;;;4.40;;
9970;SDS011;5026;51.494;11.974;2023-02-24T08:10:51;12.20;;;3.13;;
9970;SDS011;5026;51.494;11.974;2023-02-24T08:13:29;9.95;;;3.47;;
9970;SDS011;5026;51.494;11.974;2023-02-24T08:16:03;9.93;;;3.45;;
9970;SDS011;5026;51.494;11.974;2023-02-24T08:18:31;10.27;;;3.25;;
9970;SDS011;5026;51.494;11.974;2023-02-24T08:21:01;11.23;;;3.20;;
9970;SDS011;5026;51.494;11.974;2023-02-24T08:23:29;9.65;;;3.00;;
9970;SDS011;5026;51.494;11.974;2023-02-24T08:26:00;4.32;;;2.15;;
9970;SDS011;5026;51.494;11.974;2023-02-24T08:31:03;7.20;;;2.40;;
9970;SDS011;5026;51.494;11.974;2023-02-24T08:33:31;6.45;;;2.60;;
9970;SDS011;5026;51.494;11.974;2023-02-24T08:36:01;9.77;;;2.90;;
9970;SDS011;5026;51.494;11.974;2023-02-24T08:38:29;7.35;;;2.63;;
9970;SDS011;5026;51.494;11.974;2023-02-24T08:41:09;9.37;;;2.90;;
9970;SDS011;5026;51.494;11.974;2023-02-24T08:43:42;9.53;;;3.00;;
9970;SDS011;5026;51.494;11.974;2023-02-24T08:46:15;7.20;;;3.10;;
9970;SDS011;5026;51.494;11.974;2023-02-24T08:48:45;15.17;;;3.70;;
9970;SDS011;5026;51.494;11.974;2023-02-24T08:51:14;9.53;;;3.43;;
9970;SDS011;5026;51.494;11.974;2023-02-24T08:53:47;8.40;;;3.27;;
9970;SDS011;5026;51.494;11.974;2023-02-24T08:56:17;10.17;;;3.20;;
9970;SDS011;5026;51.494;11.974;2023-02-24T08:58:49;10.47;;;3.30;;
9970;SDS011;5026;51.494;11.974;2023-02-24T09:01:21;8.87;;;3.13;;
9970;SDS011;5026;51.494;11.974;2023-02-24T09:03:51;14.33;;;4.03;;
9970;SDS011;5026;51.494;11.974;2023-02-24T09:06:20;10.27;;;4.00;;
9970;SDS011;5026;51.494;11.974;2023-02-24T09:08:50;9.87;;;3.30;;
9970;SDS011;5026;51.494;11.974;2023-02-24T09:11:41;9.63;;;3.50;;
9970;SDS011;5026;51.494;11.974;2023-02-24T09:14:11;7.27;;;2.87;;
9970;SDS011;5026;51.494;11.974;2023-02-24T09:16:43;6.47;;;3.30;;
9970;SDS011;5026;51.494;11.974;2023-02-24T09:19:31;9.43;;;2.87;;
9970;SDS011;5026;51.494;11.974;2023-02-24T09:22:19;6.63;;;3.10;;
9970;SDS011;5026;51.494;11.974;2023-02-24T09:24:55;9.27;;;3.00;;
9970;SDS011;5026;51.494;11.974;2023-02-24T09:27:42;9.73;;;3.20;;
9970;SDS011;5026;51.494;11.974;2023-02-24T09:30:13;15.37;;;3.80;;
9970;SDS011;5026;51.494;11.974;2023-02-24T09:32:59;9.80;;;3.43;;
9970;SDS011;5026;51.494;11.974;2023-02-24T09:35:30;14.73;;;4.17;;
9970;SDS011;5026;51.494;11.974;2023-02-24T09:38:01;7.00;;;3.80;;
9970;SDS011;5026;51.494;11.974;2023-02-24T09:40:30;9.77;;;3.10;;
9970;SDS011;5026;51.494;11.974;2023-02-24T09:43:05;11.10;;;3.67;;
9970;SDS011;5026;51.494;11.974;2023-02-24T09:45:42;7.20;;;3.07;;
9970;SDS011;5026;51.494;11.974;2023-02-24T09:48:19;8.57;;;3.33;;
9970;SDS011;5026;51.494;11.974;2023-02-24T09:50:53;8.13;;;2.97;;
9970;SDS011;5026;51.494;11.974;2023-02-24T09:53:28;9.03;;;3.13;;
9970;SDS011;5026;51.494;11.974;2023-02-24T09:56:08;7.53;;;2.80;;
9970;SDS011;5026;51.494;11.974;2023-02-24T09:58:46;8.03;;;3.17;;
9970;SDS011;5026;51.494;11.974;2023-02-24T10:01:30;6.87;;;2.80;;
9970;SDS011;5026;51.494;11.974;2023-02-24T10:04:10;6.60;;;2.60;;
9970;SDS011;5026;51.494;11.974;2023-02-24T10:06:47;4.50;;;2.60;;
9970;SDS011;5026;51.494;11.974;2023-02-24T10:09:17;6.97;;;2.60;;
9970;SDS011;5026;51.494;11.974;2023-02-24T10:11:51;8.33;;;2.77;;
9970;SDS011;5026;51.494;11.974;2023-02-24T10:14:28;10.70;;;2.70;;
9970;SDS011;5026;51.494;11.974;2023-02-24T10:17:06;8.93;;;3.23;;
9970;SDS011;5026;51.494;11.974;2023-02-24T10:19:50;6.73;;;2.70;;
9970;SDS011;5026;51.494;11.974;2023-02-24T10:22:36;5.37;;;2.53;;
9970;SDS011;5026;51.494;11.974;2023-02-24T10:25:21;9.20;;;2.93;;
9970;SDS011;5026;51.494;11.974;2023-02-24T10:28:01;4.37;;;2.47;;
9970;SDS011;5026;51.494;11.974;2023-02-24T10:30:37;10.70;;;3.07;;
9970;SDS011;5026;51.494;11.974;2023-02-24T10:36:06;6.13;;;2.47;;
9970;SDS011;5026;51.494;11.974;2023-02-24T10:38:35;6.20;;;2.53;;
9970;SDS011;5026;51.494;11.974;2023-02-24T10:41:07;7.07;;;2.90;;
9970;SDS011;5026;51.494;11.974;2023-02-24T10:43:35;7.67;;;3.10;;
9970;SDS011;5026;51.494;11.974;2023-02-24T10:46:18;5.93;;;3.10;;
9970;SDS011;5026;51.494;11.974;2023-02-24T10:48:51;7.83;;;3.13;;
9970;SDS011;5026;51.494;11.974;2023-02-24T10:51:24;8.80;;;2.83;;
9970;SDS011;5026;51.494;11.974;2023-02-24T10:54:02;11.63;;;2.90;;
9970;SDS011;5026;51.494;11.974;2023-02-24T10:56:58;9.77;;;2.87;;
9970;SDS011;5026;51.494;11.974;2023-02-24T10:59:46;7.43;;;2.80;;
9970;SDS011;5026;51.494;11.974;2023-02-24T11:02:35;4.73;;;2.67;;
9970;SDS011;5026;51.494;11.974;2023-02-24T11:05:22;6.80;;;3.03;;
9970;SDS011;5026;51.494;11.974;2023-02-24T11:08:08;9.50;;;2.90;;
9970;SDS011;5026;51.494;11.974;2023-02-24T11:10:50;6.57;;;2.53;;
9970;SDS011;5026;51.494;11.974;2023-02-24T11:13:30;7.87;;;2.87;;
9970;SDS011;5026;51.494;11.974;2023-02-24T11:16:15;12.53;;;2.80;;
9970;SDS011;5026;51.494;11.974;2023-02-24T11:19:00;6.80;;;2.47;;
9970;SDS011;5026;51.494;11.974;2023-02-24T11:21:28;5.13;;;2.53;;
9970;SDS011;5026;51.494;11.974;2023-02-24T11:23:56;10.57;;;2.97;;
9970;SDS011;5026;51.494;11.974;2023-02-24T11:26:30;8.83;;;3.03;;
9970;SDS011;5026;51.494;11.974;2023-02-24T11:32:13;11.43;;;2.97;;
9970;SDS011;5026;51.494;11.974;2023-02-24T11:34:51;5.33;;;3.03;;
9970;SDS011;5026;51.494;11.974;2023-02-24T11:37:35;6.57;;;2.43;;
9970;SDS011;5026;51.494;11.974;2023-02-24T11:40:05;7.00;;;3.10;;
9970;SDS011;5026;51.494;11.974;2023-02-24T11:42:39;7.03;;;2.20;;
9970;SDS011;5026;51.494;11.974;2023-02-24T11:45:11;6.00;;;2.80;;
9970;SDS011;5026;51.494;11.974;2023-02-24T11:47:48;4.17;;;2.47;;
9970;SDS011;5026;51.494;11.974;2023-02-24T11:50:29;5.83;;;2.40;;
9970;SDS011;5026;51.494;11.974;2023-02-24T11:53:08;5.67;;;2.83;;
9970;SDS011;5026;51.494;11.974;2023-02-24T11:55:43;9.10;;;2.50;;
9970;SDS011;5026;51.494;11.974;2023-02-24T11:58:13;8.53;;;2.67;;
9970;SDS011;5026;51.494;11.974;2023-02-24T12:00:48;7.87;;;2.63;;
9970;SDS011;5026;51.494;11.974;2023-02-24T12:03:22;7.40;;;2.90;;
9970;SDS011;5026;51.494;11.974;2023-02-24T12:05:55;7.20;;;2.30;;
9970;SDS011;5026;51.494;11.974;2023-02-24T12:08:30;4.77;;;2.30;;
9970;SDS011;5026;51.494;11.974;2023-02-24T12:11:00;6.67;;;2.00;;
9970;SDS011;5026;51.494;11.974;2023-02-24T12:13:35;4.77;;;2.20;;
9970;SDS011;5026;51.494;11.974;2023-02-24T12:16:06;3.53;;;2.20;;
9970;SDS011;5026;51.494;11.974;2023-02-24T12:18:39;6.80;;;2.00;;
9970;SDS011;5026;51.494;11.974;2023-02-24T12:21:11;5.00;;;1.93;;
9970;SDS011;5026;51.494;11.974;2023-02-24T12:23:45;6.60;;;1.90;;
9970;SDS011;5026;51.494;11.974;2023-02-24T12:26:17;8.07;;;2.10;;
9970;SDS011;5026;51.494;11.974;2023-02-24T12:31:51;6.90;;;2.30;;
9970;SDS011;5026;51.494;11.974;2023-02-24T12:34:29;12.37;;;2.57;;
9970;SDS011;5026;51.494;11.974;2023-02-24T12:37:17;5.07;;;2.13;;
9970;SDS011;5026;51.494;11.974;2023-02-24T12:39:54;7.60;;;2.10;;
9970;SDS011;5026;51.494;11.974;2023-02-24T12:42:30;7.33;;;2.40;;
9970;SDS011;5026;51.494;11.974;2023-02-24T12:45:07;7.43;;;2.60;;
9970;SDS011;5026;51.494;11.974;2023-02-24T12:47:43;7.17;;;2.40;;
9970;SDS011;5026;51.494;11.974;2023-02-24T12:50:27;7.13;;;2.17;;
9970;SDS011;5026;51.494;11.974;2023-02-24T12:53:03;9.53;;;2.30;;
9970;SDS011;5026;51.494;11.974;2023-02-24T12:55:38;5.40;;;3.20;;
9970;SDS011;5026;51.494;11.974;2023-02-24T12:58:12;6.17;;;2.40;;
9970;SDS011;5026;51.494;11.974;2023-02-24T13:00:47;5.00;;;2.83;;
9970;SDS011;5026;51.494;11.974;2023-02-24T13:03:26;7.00;;;2.33;;
9970;SDS011;5026;51.494;11.974;2023-02-24T13:06:05;11.77;;;3.07;;
9970;SDS011;5026;51.494;11.974;2023-02-24T13:08:43;4.93;;;2.67;;
9970;SDS011;5026;51.494;11.974;2023-02-24T13:11:19;8.23;;;3.47;;
9970;SDS011;5026;51.494;11.974;2023-02-24T13:13:58;8.43;;;2.73;;
9970;SDS011;5026;51.494;11.974;2023-02-24T13:16:32;4.10;;;2.57;;
9970;SDS011;5026;51.494;11.974;2023-02-24T13:19:04;7.23;;;3.57;;
9970;SDS011;5026;51.494;11.974;2023-02-24T13:21:32;6.43;;;2.80;;
9970;SDS011;5026;51.494;11.974;2023-02-24T13:24:00;7.17;;;2.60;;
9970;SDS011;5026;51.494;11.974;2023-02-24T13:26:29;6.27;;;2.73;;
9970;SDS011;5026;51.494;11.974;2023-02-24T13:28:58;6.47;;;3.17;;
9970;SDS011;5026;51.494;11.974;2023-02-24T13:31:37;4.87;;;2.80;;
9970;SDS011;5026;51.494;11.974;2023-02-24T13:34:11;6.93;;;2.93;;
9970;SDS011;5026;51.494;11.974;2023-02-24T13:36:44;5.57;;;2.90;;
9970;SDS011;5026;51.494;11.974;2023-02-24T13:39:19;6.13;;;2.67;;
9970;SDS011;5026;51.494;11.974;2023-02-24T13:41:49;9.17;;;2.93;;
9970;SDS011;5026;51.494;11.974;2023-02-24T13:44:28;3.70;;;2.50;;
9970;SDS011;5026;51.494;11.974;2023-02-24T13:47:04;3.80;;;2.60;;
9970;SDS011;5026;51.494;11.974;2023-02-24T13:49:50;6.67;;;2.70;;
9970;SDS011;5026;51.494;11.974;2023-02-24T13:52:29;4.33;;;2.43;;
9970;SDS011;5026;51.494;11.974;2023-02-24T13:55:16;5.03;;;2.57;;
9970;SDS011;5026;51.494;11.974;2023-02-24T13:58:16;4.43;;;2.17;;
9970;SDS011;5026;51.494;11.974;2023-02-24T14:01:04;4.67;;;2.73;;
9970;SDS011;5026;51.494;11.974;2023-02-24T14:03:34;5.17;;;2.20;;
9970;SDS011;5026;51.494;11.974;2023-02-24T14:06:03;4.00;;;2.20;;
9970;SDS011;5026;51.494;11.974;2023-02-24T14:08:37;7.03;;;2.67;;
9970;SDS011;5026;51.494;11.974;2023-02-24T14:11:09;3.80;;;2.73;;
9970;SDS011;5026;51.494;11.974;2023-02-24T14:13:43;5.77;;;2.93;;
9970;SDS011;5026;51.494;11.974;2023-02-24T14:16:16;4.93;;;2.97;;
9970;SDS011;5026;51.494;11.974;2023-02-24T14:18:51;4.13;;;2.93;;
9970;SDS011;5026;51.494;11.974;2023-02-24T14:21:20;6.77;;;3.20;;
9970;SDS011;5026;51.494;11.974;2023-02-24T14:23:54;4.53;;;2.83;;
9970;SDS011;5026;51.494;11.974;2023-02-24T14:26:22;4.53;;;3.10;;
9970;SDS011;5026;51.494;11.974;2023-02-24T14:28:52;4.00;;;2.83;;
9970;SDS011;5026;51.494;11.974;2023-02-24T14:31:22;5.30;;;3.27;;
9970;SDS011;5026;51.494;11.974;2023-02-24T14:33:52;4.50;;;3.20;;
9970;SDS011;5026;51.494;11.974;2023-02-24T14:36:23;4.53;;;3.10;;
9970;SDS011;5026;51.494;11.974;2023-02-24T14:38:59;3.77;;;3.17;;
9970;SDS011;5026;51.494;11.974;2023-02-24T14:41:28;8.83;;;4.03;;
9970;SDS011;5026;51.494;11.974;2023-02-24T14:44:04;5.60;;;3.67;;
9970;SDS011;5026;51.494;11.974;2023-02-24T14:46:46;5.07;;;3.80;;
9970;SDS011;5026;51.494;11.974;2023-02-24T14:49:16;7.03;;;3.60;;
9970;SDS011;5026;51.494;11.974;2023-02-24T14:51:45;7.20;;;3.50;;
9970;SDS011;5026;51.494;11.974;2023-02-24T14:54:16;4.70;;;2.77;;
9970;SDS011;5026;51.494;11.974;2023-02-24T14:56:51;5.73;;;3.20;;
9970;SDS011;5026;51.494;11.974;2023-02-24T14:59:21;4.30;;;3.30;;
9970;SDS011;5026;51.494;11.974;2023-02-24T15:01:53;5.37;;;3.37;;
9970;SDS011;5026;51.494;11.974;2023-02-24T15:04:24;4.23;;;3.27;;
9970;SDS011;5026;51.494;11.974;2023-02-24T15:06:57;4.27;;;3.10;;
9970;SDS011;5026;51.494;11.974;2023-02-24T15:09:26;6.67;;;4.23;;
9970;SDS011;5026;51.494;11.974;2023-02-24T15:11:58;4.60;;;2.73;;
9970;SDS011;5026;51.494;11.974;2023-02-24T15:14:37;4.90;;;2.87;;
9970;SDS011;5026;51.494;11.974;2023-02-24T15:17:08;4.83;;;3.67;;
9970;SDS011;5026;51.494;11.974;2023-02-24T15:19:41;4.20;;;3.13;;
9970;SDS011;5026;51.494;11.974;2023-02-24T15:22:17;3.80;;;2.50;;
9970;SDS011;5026;51.494;11.974;2023-02-24T15:24:46;5.07;;;2.63;;
9970;SDS011;5026;51.494;11.974;2023-02-24T15:27:18;5.87;;;3.40;;
9970;SDS011;5026;51.494;11.974;2023-02-24T15:29:57;4.63;;;2.93;;
9970;SDS011;5026;51.494;11.974;2023-02-24T15:32:26;2.87;;;2.50;;
9970;SDS011;5026;51.494;11.974;2023-02-24T15:34:55;3.17;;;2.77;;
9970;SDS011;5026;51.494;11.974;2023-02-24T15:37:23;4.73;;;2.77;;
9970;SDS011;5026;51.494;11.974;2023-02-24T15:39:54;3.17;;;2.70;;
9970;SDS011;5026;51.494;11.974;2023-02-24T15:42:29;3.97;;;2.60;;
9970;SDS011;5026;51.494;11.974;2023-02-24T15:45:00;5.80;;;3.00;;